createdAt,value
2023-04-12T00:01:56.699Z,8.01
2023-04-12T00:05:03.122Z,7.93
2023-04-12T00:08:06.360Z,7.89
2023-04-12T00:11:21.637Z,7.89
2023-04-12T00:14:25.179Z,7.82
2023-04-12T00:17:28.583Z,7.69
2023-04-12T00:20:31.701Z,7.63
2023-04-12T00:23:34.437Z,7.68
2023-04-12T00:26:37.330Z,7.78
2023-04-12T00:29:40.621Z,7.77
2023-04-12T00:32:43.434Z,7.64
2023-04-12T00:35:46.592Z,7.73
2023-04-12T00:38:51.375Z,7.76
2023-04-12T00:41:57.072Z,7.72
2023-04-12T00:44:59.949Z,7.61
2023-04-12T00:48:03.908Z,7.53
2023-04-12T00:51:07.986Z,7.55
2023-04-12T00:54:14.007Z,7.59
2023-04-12T00:57:17.083Z,7.52
2023-04-12T01:00:19.895Z,7.43
2023-04-12T01:03:28.073Z,7.34
2023-04-12T01:06:44.835Z,7.26
2023-04-12T01:10:04.376Z,7.41
2023-04-12T01:13:26.101Z,7.32
2023-04-12T01:16:47.769Z,7.32
2023-04-12T01:20:13.743Z,7.26
2023-04-12T01:23:44.777Z,7.26
2023-04-12T01:26:49.108Z,7.26
2023-04-12T01:29:52.031Z,7.25
2023-04-12T01:32:56.920Z,7.23
2023-04-12T01:36:01.014Z,7.12
2023-04-12T01:39:05.144Z,7.11
2023-04-12T01:42:07.740Z,7.18
2023-04-12T01:45:10.578Z,7.21
2023-04-12T01:48:13.691Z,7.29
2023-04-12T01:51:42.299Z,7.21
2023-04-12T01:54:51.402Z,7.28
2023-04-12T01:57:54.508Z,7.24
2023-04-12T02:00:59.972Z,7.12
2023-04-12T02:04:04.785Z,7.16
2023-04-12T02:07:07.628Z,7.02
2023-04-12T02:10:15.228Z,7.05
2023-04-12T02:13:18.392Z,7.02
2023-04-12T02:16:23.272Z,7.03
2023-04-12T02:19:25.817Z,6.97
2023-04-12T02:22:29.424Z,6.99
2023-04-12T02:25:33.449Z,6.85
2023-04-12T02:28:39.493Z,6.78
2023-04-12T02:31:45.420Z,6.87
2023-04-12T02:34:51.535Z,6.97
2023-04-12T02:37:56.191Z,6.92
2023-04-12T02:41:03.062Z,6.88
2023-04-12T02:44:07.705Z,6.79
2023-04-12T02:47:10.957Z,6.91
2023-04-12T02:50:15.605Z,6.84
2023-04-12T02:53:27.816Z,6.97
2023-04-12T02:56:52.684Z,6.96
2023-04-12T03:00:13.381Z,6.87
2023-04-12T03:03:26.188Z,6.80
2023-04-12T03:06:32.223Z,6.83
2023-04-12T03:09:38.704Z,6.70
2023-04-12T03:12:41.631Z,6.78
2023-04-12T03:15:57.289Z,6.73
2023-04-12T03:19:07.236Z,6.72
2023-04-12T03:22:11.011Z,6.78
2023-04-12T03:25:20.096Z,6.67
2023-04-12T03:28:29.329Z,6.70
2023-04-12T03:31:32.892Z,6.75
2023-04-12T03:34:40.913Z,6.64
2023-04-12T03:37:48.145Z,6.71
2023-04-12T03:40:51.173Z,6.74
2023-04-12T03:44:01.676Z,6.76
2023-04-12T03:47:05.416Z,6.66
2023-04-12T03:50:12.590Z,6.75
2023-04-12T03:53:21.474Z,6.89
2023-04-12T03:56:24.561Z,6.87
2023-04-12T03:59:30.867Z,6.83
2023-04-12T04:02:34.708Z,6.93
2023-04-12T04:05:38.490Z,6.77
2023-04-12T04:08:42.590Z,6.92
2023-04-12T04:11:45.880Z,6.83
2023-04-12T04:14:49.231Z,6.79
2023-04-12T04:18:03.326Z,6.88
2023-04-12T04:21:07.536Z,6.75
2023-04-12T04:24:11.583Z,6.91
2023-04-12T04:27:20.581Z,6.93
2023-04-12T04:30:24.234Z,6.90
2023-04-12T04:33:26.693Z,6.86
2023-04-12T04:36:37.457Z,6.88
2023-04-12T04:39:41.554Z,6.82
2023-04-12T04:42:46.454Z,6.82
2023-04-12T04:45:54.701Z,6.93
2023-04-12T04:48:58.734Z,7.03
2023-04-12T04:52:01.367Z,7.33
2023-04-12T04:55:06.926Z,7.40
2023-04-12T04:58:13.566Z,7.46
2023-04-12T05:01:17.069Z,7.58
2023-04-12T05:04:22.801Z,7.78
2023-04-12T05:07:26.240Z,7.85
2023-04-12T05:10:29.817Z,7.92
2023-04-12T05:13:35.939Z,7.96
2023-04-12T05:16:38.476Z,8.02
2023-04-12T05:19:43.954Z,8.07
2023-04-12T05:22:47.178Z,8.12
2023-04-12T05:25:50.201Z,8.26
2023-04-12T05:28:55.574Z,8.31
2023-04-12T05:31:59.514Z,8.32
2023-04-12T05:35:02.912Z,8.34
2023-04-12T05:38:05.935Z,8.38
2023-04-12T05:41:09.206Z,8.51
2023-04-12T05:44:12.281Z,8.55
2023-04-12T05:47:14.796Z,8.61
2023-04-12T05:50:17.901Z,8.59
2023-04-12T05:53:21.989Z,8.65
2023-04-12T05:56:24.468Z,8.70
2023-04-12T05:59:27.051Z,8.81
2023-04-12T06:02:30.934Z,8.98
2023-04-12T06:05:34.289Z,9.01
2023-04-12T06:08:38.178Z,9.00
2023-04-12T06:11:41.024Z,9.08
2023-04-12T06:14:43.632Z,9.16
2023-04-12T06:17:46.599Z,9.11
2023-04-12T06:20:49.161Z,9.18
2023-04-12T06:23:52.181Z,9.20
2023-04-12T06:26:54.670Z,9.31
2023-04-12T06:29:57.542Z,9.33
2023-04-12T06:33:00.663Z,9.40
2023-04-12T06:36:03.744Z,9.32
2023-04-12T06:39:06.836Z,9.34
2023-04-12T06:42:09.415Z,9.52
2023-04-12T06:45:15.530Z,9.58
2023-04-12T06:48:18.599Z,9.67
2023-04-12T06:51:21.222Z,9.71
2023-04-12T06:54:24.163Z,9.81
2023-04-12T06:57:26.848Z,9.88
2023-04-12T07:00:29.585Z,9.91
2023-04-12T07:03:33.479Z,9.99
2023-04-12T07:06:36.343Z,10.01
2023-04-12T07:09:38.941Z,10.11
2023-04-12T07:12:42.363Z,10.19
2023-04-12T07:15:45.065Z,10.23
2023-04-12T07:18:48.499Z,10.39
2023-04-12T07:21:51.331Z,10.45
2023-04-12T07:24:53.933Z,10.53
2023-04-12T07:27:56.741Z,10.64
2023-04-12T07:30:59.241Z,10.70
2023-04-12T07:34:02.102Z,10.73
2023-04-12T07:37:04.979Z,10.81
2023-04-12T07:40:08.028Z,10.83
2023-04-12T07:43:10.578Z,10.84
2023-04-12T07:46:13.064Z,10.91
2023-04-12T07:49:15.793Z,10.98
2023-04-12T07:52:18.626Z,11.13
2023-04-12T07:55:21.503Z,11.09
2023-04-12T07:58:24.989Z,11.18
2023-04-12T08:01:27.673Z,11.31
2023-04-12T08:04:30.279Z,11.48
2023-04-12T08:07:32.935Z,11.67
2023-04-12T08:10:37.128Z,11.78
2023-04-12T08:13:39.847Z,11.91
2023-04-12T08:16:42.650Z,12.19
2023-04-12T08:19:46.377Z,12.38
2023-04-12T08:22:49.525Z,12.50
2023-04-12T08:25:59.461Z,12.70
2023-04-12T08:29:02.104Z,12.83
2023-04-12T08:32:05.325Z,13.03
2023-04-12T08:35:08.359Z,13.24
2023-04-12T08:38:10.905Z,13.45
2023-04-12T08:41:14.283Z,13.61
2023-04-12T08:44:18.261Z,13.86
2023-04-12T08:47:21.197Z,13.89
2023-04-12T08:50:25.850Z,14.43
2023-04-12T08:53:28.476Z,14.35
2023-04-12T08:56:32.024Z,14.23
2023-04-12T08:59:39.288Z,14.56
2023-04-12T09:02:46.494Z,14.84
2023-04-12T09:05:49.988Z,15.11
2023-04-12T09:08:54.941Z,15.44
2023-04-12T09:12:07.050Z,15.88
2023-04-12T09:15:09.501Z,16.36
2023-04-12T09:18:16.684Z,16.67
2023-04-12T09:21:20.278Z,17.19
2023-04-12T09:24:25.972Z,18.24
2023-04-12T09:27:29.802Z,19.87
2023-04-12T09:30:41.642Z,23.61
2023-04-12T09:33:46.172Z,26.47
2023-04-12T09:36:48.709Z,27.98
2023-04-12T09:40:10.413Z,29.80
2023-04-12T09:43:13.147Z,30.53
2023-04-12T09:46:16.633Z,30.93
2023-04-12T09:49:19.316Z,32.70
2023-04-12T09:52:21.938Z,32.83
2023-04-12T09:55:27.377Z,34.13
2023-04-12T09:58:33.761Z,33.04
2023-04-12T10:01:39.679Z,31.85
2023-04-12T10:04:43.412Z,33.46
2023-04-12T10:07:47.541Z,33.30
2023-04-12T10:10:51.487Z,34.81
2023-04-12T10:13:56.627Z,35.68
2023-04-12T10:17:01.848Z,35.92
2023-04-12T10:20:06.008Z,34.92
2023-04-12T10:23:09.598Z,34.52
2023-04-12T10:26:12.437Z,34.06
2023-04-12T10:29:34.707Z,34.72
2023-04-12T10:32:37.619Z,35.74
2023-04-12T10:35:52.446Z,35.77
2023-04-12T10:39:10.008Z,35.39
2023-04-12T10:42:24.685Z,35.35
2023-04-12T10:45:34.212Z,35.80
2023-04-12T10:48:38.622Z,34.13
2023-04-12T10:52:04.285Z,34.10
2023-04-12T10:55:30.200Z,34.99
2023-04-12T10:58:47.828Z,35.48
2023-04-12T11:02:09.483Z,36.34
2023-04-12T11:05:14.441Z,36.73
2023-04-12T11:08:32.179Z,37.21
2023-04-12T11:12:04.842Z,37.66
2023-04-12T11:15:12.780Z,36.56
2023-04-12T11:18:27.095Z,35.89
2023-04-12T11:21:30.800Z,37.11
2023-04-12T11:24:33.760Z,37.43
2023-04-12T11:27:38.232Z,37.70
2023-04-12T11:30:50.968Z,38.32
2023-04-12T11:33:53.757Z,38.15
2023-04-12T11:36:56.440Z,37.43
2023-04-12T11:39:59.251Z,38.38
2023-04-12T11:43:01.837Z,39.03
2023-04-12T11:46:05.061Z,38.78
2023-04-12T11:49:07.776Z,39.22
2023-04-12T11:52:10.402Z,40.21
2023-04-12T11:55:12.969Z,38.83
2023-04-12T11:58:16.177Z,39.60
2023-04-12T12:01:20.767Z,39.31
2023-04-12T12:04:24.268Z,40.47
2023-04-12T12:07:27.873Z,40.12
2023-04-12T12:10:42.070Z,39.77
2023-04-12T12:13:53.922Z,40.22
2023-04-12T12:16:58.512Z,40.09
2023-04-12T12:20:02.327Z,39.99
2023-04-12T12:23:05.085Z,39.65
2023-04-12T12:26:18.527Z,40.12
2023-04-12T12:29:24.438Z,39.82
2023-04-12T12:32:33.486Z,39.37
2023-04-12T12:35:36.898Z,39.57
2023-04-12T12:38:42.884Z,39.51
2023-04-12T12:41:54.682Z,39.05
2023-04-12T12:44:57.155Z,39.24
2023-04-12T12:48:04.472Z,40.32
2023-04-12T12:51:09.201Z,39.25
2023-04-12T12:54:12.297Z,39.22
2023-04-12T12:57:14.828Z,38.14
2023-04-12T13:00:19.451Z,38.51
2023-04-12T13:03:22.378Z,40.08
2023-04-12T13:06:28.180Z,37.62
2023-04-12T13:09:31.652Z,38.05
2023-04-12T13:12:34.178Z,37.71
2023-04-12T13:15:36.830Z,37.70
2023-04-12T13:18:39.450Z,36.74
2023-04-12T13:21:41.980Z,38.29
2023-04-12T13:24:44.594Z,38.55
2023-04-12T13:27:51.815Z,36.92
2023-04-12T13:30:54.489Z,37.95
2023-04-12T13:33:57.470Z,36.04
2023-04-12T13:37:01.047Z,36.12
2023-04-12T13:40:04.676Z,35.72
2023-04-12T13:43:08.779Z,35.48
2023-04-12T13:46:13.049Z,35.97
2023-04-12T13:49:16.294Z,35.82
2023-04-12T13:52:18.887Z,35.81
2023-04-12T13:55:21.637Z,35.22
2023-04-12T13:58:25.890Z,33.89
2023-04-12T14:01:28.585Z,35.24
2023-04-12T14:04:31.702Z,33.36
2023-04-12T14:07:34.401Z,33.96
2023-04-12T14:10:37.074Z,33.97
2023-04-12T14:13:39.715Z,34.16
2023-04-12T14:16:42.434Z,33.05
2023-04-12T14:19:45.086Z,33.05
2023-04-12T14:22:47.651Z,32.75
2023-04-12T14:25:50.257Z,32.71
2023-04-12T14:28:53.100Z,31.53
2023-04-12T14:31:55.743Z,31.07
2023-04-12T14:34:58.341Z,26.44
2023-04-12T14:38:01.156Z,24.04
2023-04-12T14:41:09.402Z,23.28
2023-04-12T14:44:12.281Z,22.54
2023-04-12T14:47:14.849Z,22.42
2023-04-12T14:50:17.603Z,21.90
2023-04-12T14:53:21.189Z,21.55
2023-04-12T14:56:28.669Z,21.23
2023-04-12T14:59:32.393Z,21.00
2023-04-12T15:02:35.207Z,20.82
2023-04-12T15:05:38.010Z,20.95
2023-04-12T15:08:43.185Z,20.93
2023-04-12T15:11:49.956Z,20.66
2023-04-12T15:14:58.271Z,20.97
2023-04-12T15:18:03.481Z,20.67
2023-04-12T15:21:08.761Z,20.36
2023-04-12T15:24:11.522Z,20.30
2023-04-12T15:27:14.120Z,20.12
2023-04-12T15:30:17.933Z,19.97
2023-04-12T15:33:23.828Z,19.91
2023-04-12T15:36:33.743Z,19.92
2023-04-12T15:39:36.842Z,19.82
2023-04-12T15:42:41.865Z,19.63
2023-04-12T15:45:44.978Z,19.57
2023-04-12T15:48:48.163Z,19.55
2023-04-12T15:51:51.612Z,19.39
2023-04-12T15:54:54.168Z,19.32
2023-04-12T15:57:57.214Z,19.51
2023-04-12T16:00:59.738Z,19.49
2023-04-12T16:04:03.382Z,19.23
2023-04-12T16:07:06.210Z,19.17
2023-04-12T16:10:09.506Z,19.08
2023-04-12T16:13:12.622Z,18.82
2023-04-12T16:16:17.840Z,18.68
2023-04-12T16:19:20.488Z,18.09
2023-04-12T16:22:23.424Z,17.80
2023-04-12T16:25:28.167Z,17.61
2023-04-12T16:28:31.479Z,17.39
2023-04-12T16:31:35.630Z,17.21
2023-04-12T16:34:41.329Z,16.91
2023-04-12T16:37:45.537Z,16.72
2023-04-12T16:40:48.217Z,16.69
2023-04-12T16:43:53.847Z,16.54
2023-04-12T16:46:56.897Z,16.46
2023-04-12T16:50:09.968Z,16.45
2023-04-12T16:53:15.122Z,16.27
2023-04-12T16:56:18.513Z,16.15
2023-04-12T16:59:21.736Z,16.12
2023-04-12T17:02:25.514Z,15.90
2023-04-12T17:05:29.861Z,15.86
2023-04-12T17:08:32.854Z,15.78
2023-04-12T17:11:36.485Z,15.61
2023-04-12T17:14:39.910Z,15.48
2023-04-12T17:17:49.389Z,15.29
2023-04-12T17:20:52.487Z,15.15
2023-04-12T17:23:58.641Z,14.98
2023-04-12T17:27:02.675Z,14.93
2023-04-12T17:30:06.722Z,14.90
2023-04-12T17:33:09.434Z,14.86
2023-04-12T17:36:12.566Z,14.59
2023-04-12T17:39:16.598Z,14.50
2023-04-12T17:42:21.392Z,14.31
2023-04-12T17:45:26.127Z,14.29
2023-04-12T17:48:33.006Z,14.24
2023-04-12T17:51:36.264Z,14.24
2023-04-12T17:54:39.579Z,14.19
2023-04-12T17:57:44.767Z,14.20
2023-04-12T18:00:48.368Z,14.20
2023-04-12T18:03:51.861Z,14.08
2023-04-12T18:06:57.011Z,14.08
2023-04-12T18:10:02.748Z,14.01
2023-04-12T18:13:06.292Z,14.03
2023-04-12T18:16:09.447Z,13.99
2023-04-12T18:19:14.162Z,14.07
2023-04-12T18:22:19.229Z,14.04
2023-04-12T18:25:24.350Z,14.01
2023-04-12T18:28:32.087Z,14.01
2023-04-12T18:31:39.134Z,13.88
2023-04-12T18:34:42.907Z,13.84
2023-04-12T18:37:45.824Z,13.76
2023-04-12T18:40:50.299Z,13.73
2023-04-12T18:43:54.353Z,13.68
2023-04-12T18:46:58.139Z,13.60
2023-04-12T18:50:01.174Z,13.63
2023-04-12T18:53:06.469Z,13.68
2023-04-12T18:56:14.527Z,13.77
2023-04-12T18:59:18.793Z,13.71
2023-04-12T19:02:24.873Z,13.59
2023-04-12T19:05:28.747Z,13.46
2023-04-12T19:08:32.340Z,13.44
2023-04-12T19:11:37.328Z,13.25
2023-04-12T19:14:41.077Z,13.22
2023-04-12T19:17:45.314Z,13.27
2023-04-12T19:20:50.512Z,13.13
2023-04-12T19:23:55.945Z,13.13
2023-04-12T19:27:01.089Z,13.13
2023-04-12T19:30:04.835Z,13.03
2023-04-12T19:33:09.158Z,12.81
2023-04-12T19:39:29.502Z,12.81
2023-04-12T19:42:33.233Z,12.90
2023-04-12T19:45:36.813Z,12.78
2023-04-12T19:48:41.510Z,12.74
2023-04-12T19:51:48.382Z,12.79
2023-04-12T19:54:54.717Z,12.79
2023-04-12T19:57:59.497Z,12.61
2023-04-12T20:01:05.005Z,12.40
2023-04-12T20:04:10.266Z,12.51
2023-04-12T20:07:13.947Z,12.63
2023-04-12T20:10:18.745Z,12.64
2023-04-12T20:13:21.803Z,12.58
2023-04-12T20:16:25.175Z,12.55
2023-04-12T20:19:28.855Z,12.60
2023-04-12T20:22:33.389Z,12.63
2023-04-12T20:25:38.582Z,12.70
2023-04-12T20:28:41.719Z,12.63
2023-04-12T20:31:47.723Z,12.59
2023-04-12T20:34:51.493Z,12.43
2023-04-12T20:37:54.661Z,12.35
2023-04-12T20:40:59.859Z,12.24
2023-04-12T20:44:03.599Z,12.27
2023-04-12T20:47:07.437Z,12.28
2023-04-12T20:50:11.745Z,12.31
2023-04-12T20:53:17.687Z,12.23
2023-04-12T20:56:20.615Z,12.11
2023-04-12T20:59:30.862Z,12.00
2023-04-12T21:02:33.846Z,12.05
2023-04-12T21:05:37.741Z,12.06
2023-04-12T21:08:42.625Z,12.07
2023-04-12T21:11:45.225Z,11.94
2023-04-12T21:14:50.442Z,11.87
2023-04-12T21:17:53.085Z,11.94
2023-04-12T21:20:59.344Z,11.76
2023-04-12T21:24:03.941Z,11.71
2023-04-12T21:27:10.134Z,11.62
2023-04-12T21:30:13.921Z,11.59
2023-04-12T21:33:21.903Z,11.59
2023-04-12T21:36:27.897Z,11.53
2023-04-12T21:39:30.638Z,11.55
2023-04-12T21:42:34.525Z,11.34
2023-04-12T21:45:37.332Z,11.51
2023-04-12T21:48:39.920Z,11.49
2023-04-12T21:51:46.176Z,11.40
2023-04-12T21:54:49.128Z,11.30
2023-04-12T21:57:52.386Z,11.42
2023-04-12T22:00:55.750Z,11.37
2023-04-12T22:03:58.667Z,11.32
2023-04-12T22:07:05.265Z,11.21
2023-04-12T22:10:12.454Z,11.21
2023-04-12T22:13:15.930Z,11.19
2023-04-12T22:16:18.515Z,11.03
2023-04-12T22:19:21.375Z,10.99
2023-04-12T22:22:29.948Z,10.94
2023-04-12T22:25:33.656Z,10.90
2023-04-12T22:28:38.139Z,10.84
2023-04-12T22:31:41.026Z,10.84
2023-04-12T22:34:43.846Z,10.92
2023-04-12T22:37:46.569Z,10.82
2023-04-12T22:40:49.481Z,10.65
2023-04-12T22:44:02.952Z,10.59
2023-04-12T22:47:09.078Z,10.54
2023-04-12T22:50:12.964Z,10.73
2023-04-12T22:53:15.897Z,10.81
2023-04-12T22:56:18.869Z,10.85
2023-04-12T22:59:23.055Z,11.04
2023-04-12T23:02:25.884Z,11.17
2023-04-12T23:05:28.940Z,11.17
2023-04-12T23:08:32.294Z,11.21
2023-04-12T23:11:36.309Z,11.26
2023-04-12T23:14:39.298Z,11.32
2023-04-12T23:17:42.216Z,11.25
2023-04-12T23:20:44.954Z,11.27
2023-04-12T23:23:47.554Z,11.34
2023-04-12T23:26:50.251Z,11.32
2023-04-12T23:29:52.958Z,11.45
2023-04-12T23:32:58.485Z,11.45
2023-04-12T23:36:05.204Z,11.43
2023-04-12T23:39:09.462Z,11.53
2023-04-12T23:42:12.132Z,11.80
2023-04-12T23:45:14.984Z,11.83
2023-04-12T23:48:17.591Z,11.77
2023-04-12T23:51:20.204Z,11.77
2023-04-12T23:54:23.643Z,11.72
2023-04-12T23:57:26.407Z,11.78
